createdAt,value
2017-09-10T00:01:48.794Z,12.70
2017-09-10T00:04:17.151Z,12.60
2017-09-10T00:06:44.741Z,12.60
2017-09-10T00:09:13.090Z,12.70
2017-09-10T00:11:40.653Z,12.60
2017-09-10T00:14:08.275Z,12.60
2017-09-10T00:16:35.862Z,12.50
2017-09-10T00:19:03.452Z,12.50
2017-09-10T00:21:31.795Z,12.50
2017-09-10T00:23:59.396Z,12.50
2017-09-10T00:26:28.464Z,12.40
2017-09-10T00:28:56.982Z,12.40
2017-09-10T00:31:24.550Z,12.40
2017-09-10T00:33:52.123Z,12.40
2017-09-10T00:36:19.699Z,12.40
2017-09-10T00:41:21.165Z,12.30
2017-09-10T00:43:48.767Z,12.30
2017-09-10T00:46:17.120Z,12.10
2017-09-10T00:48:44.735Z,12.10
2017-09-10T00:51:13.079Z,12.00
2017-09-10T00:53:40.648Z,12.00
2017-09-10T00:56:08.225Z,12.00
2017-09-10T00:58:35.806Z,12.00
2017-09-10T01:01:03.399Z,12.00
2017-09-10T01:03:30.967Z,11.90
2017-09-10T01:05:58.540Z,11.90
2017-09-10T01:08:26.093Z,11.90
2017-09-10T01:10:53.692Z,11.90
2017-09-10T01:13:21.288Z,12.00
2017-09-10T01:15:48.888Z,11.90
2017-09-10T01:18:16.487Z,11.90
2017-09-10T01:20:44.061Z,11.90
2017-09-10T01:23:11.632Z,12.00
2017-09-10T01:25:39.969Z,12.00
2017-09-10T01:28:08.345Z,12.00
2017-09-10T01:30:37.654Z,12.00
2017-09-10T01:33:05.232Z,12.00
2017-09-10T01:35:32.826Z,11.90
2017-09-10T01:38:00.409Z,11.90
2017-09-10T01:40:27.997Z,11.90
2017-09-10T01:42:55.650Z,11.80
2017-09-10T01:45:23.973Z,11.80
2017-09-10T01:47:51.617Z,11.80
2017-09-10T01:50:19.221Z,11.90
2017-09-10T01:52:46.841Z,11.80
2017-09-10T01:55:14.458Z,11.70
2017-09-10T01:57:42.816Z,11.60
2017-09-10T02:00:10.415Z,11.70
2017-09-10T02:02:38.736Z,11.70
2017-09-10T02:05:06.342Z,11.60
2017-09-10T02:07:34.713Z,11.60
2017-09-10T02:10:03.093Z,11.60
2017-09-10T02:12:31.491Z,11.50
2017-09-10T02:14:59.081Z,11.50
2017-09-10T02:17:26.657Z,11.50
2017-09-10T02:19:54.255Z,11.50
2017-09-10T02:22:22.634Z,11.40
2017-09-10T02:24:51.018Z,11.30
2017-09-10T02:27:19.379Z,11.20
2017-09-10T02:29:46.968Z,11.10
2017-09-10T02:32:15.376Z,10.90
2017-09-10T02:34:42.948Z,10.90
2017-09-10T02:37:10.580Z,10.90
2017-09-10T02:39:38.133Z,10.90
2017-09-10T02:42:05.709Z,10.90
2017-09-10T02:44:33.409Z,10.90
2017-09-10T02:47:00.999Z,10.90
2017-09-10T02:49:29.372Z,11.00
2017-09-10T02:51:57.713Z,11.00
2017-09-10T02:54:25.324Z,11.00
2017-09-10T02:56:53.204Z,11.00
2017-09-10T02:59:20.836Z,11.10
2017-09-10T03:01:49.883Z,11.10
2017-09-10T03:04:17.489Z,11.10
2017-09-10T03:06:45.822Z,11.10
2017-09-10T03:09:13.433Z,11.10
2017-09-10T03:11:41.058Z,11.20
2017-09-10T03:14:08.723Z,11.20
2017-09-10T03:16:36.317Z,11.20
2017-09-10T03:19:04.656Z,11.20
2017-09-10T03:21:32.255Z,11.10
2017-09-10T03:24:00.638Z,11.10
2017-09-10T03:26:29.008Z,11.10
2017-09-10T03:28:56.581Z,11.10
2017-09-10T03:31:24.160Z,11.10
2017-09-10T03:33:51.714Z,11.10
2017-09-10T03:36:19.680Z,11.10
2017-09-10T03:38:47.264Z,11.10
2017-09-10T03:41:14.804Z,11.00
2017-09-10T03:43:42.374Z,11.00
2017-09-10T03:46:09.941Z,11.00
2017-09-10T03:48:37.597Z,10.90
2017-09-10T03:51:05.177Z,10.90
2017-09-10T03:53:32.765Z,10.90
2017-09-10T03:56:00.371Z,10.90
2017-09-10T03:58:27.951Z,10.80
2017-09-10T04:00:55.529Z,10.80
2017-09-10T04:03:23.114Z,10.70
2017-09-10T04:05:50.732Z,10.70
2017-09-10T04:08:18.293Z,10.70
2017-09-10T04:10:45.870Z,10.60
2017-09-10T04:13:13.445Z,10.60
2017-09-10T04:15:41.040Z,10.60
2017-09-10T04:18:09.400Z,10.60
2017-09-10T04:20:37.779Z,10.50
2017-09-10T04:23:05.622Z,10.50
2017-09-10T04:25:33.235Z,10.40
2017-09-10T04:28:00.862Z,10.40
2017-09-10T04:30:28.843Z,10.40
2017-09-10T04:32:56.405Z,10.40
2017-09-10T04:35:24.818Z,10.30
2017-09-10T04:37:52.396Z,10.30
2017-09-10T04:40:20.035Z,10.30
2017-09-10T04:42:48.443Z,10.30
2017-09-10T04:45:16.100Z,10.40
2017-09-10T04:47:43.709Z,10.40
2017-09-10T04:50:12.060Z,10.50
2017-09-10T04:52:39.652Z,10.40
2017-09-10T04:55:07.987Z,10.50
2017-09-10T04:57:35.568Z,10.50
2017-09-10T05:00:03.175Z,10.50
2017-09-10T05:02:30.852Z,10.50
2017-09-10T05:04:58.707Z,10.50
2017-09-10T05:07:26.310Z,10.60
2017-09-10T05:09:53.920Z,10.60
2017-09-10T05:12:21.487Z,10.60
2017-09-10T05:14:49.108Z,10.60
2017-09-10T05:17:17.496Z,10.60
2017-09-10T05:19:45.842Z,10.70
2017-09-10T05:22:13.477Z,10.60
2017-09-10T05:24:41.051Z,10.70
2017-09-10T05:27:08.605Z,10.70
2017-09-10T05:29:36.194Z,10.70
2017-09-10T05:32:04.893Z,10.70
2017-09-10T05:34:33.252Z,10.70
2017-09-10T05:37:00.828Z,10.70
2017-09-10T05:39:29.551Z,10.80
2017-09-10T05:41:57.107Z,10.80
2017-09-10T05:44:24.718Z,10.90
2017-09-10T05:46:52.283Z,11.00
2017-09-10T05:49:19.918Z,11.10
2017-09-10T05:51:47.531Z,11.10
2017-09-10T05:54:15.862Z,11.20
2017-09-10T05:56:43.462Z,11.20
2017-09-10T05:59:12.332Z,11.70
2017-09-10T06:01:40.694Z,12.10
2017-09-10T06:04:08.255Z,12.10
2017-09-10T06:06:35.823Z,12.60
2017-09-10T06:09:03.481Z,13.00
2017-09-10T06:11:31.060Z,13.10
2017-09-10T06:13:58.673Z,12.90
2017-09-10T06:16:26.289Z,12.70
2017-09-10T06:18:54.673Z,12.40
2017-09-10T06:21:22.282Z,12.40
2017-09-10T06:23:50.051Z,12.40
2017-09-10T06:26:18.002Z,12.30
2017-09-10T06:28:45.567Z,12.30
2017-09-10T06:31:13.641Z,12.40
2017-09-10T06:33:41.299Z,12.50
2017-09-10T06:36:08.959Z,12.50
2017-09-10T06:38:36.560Z,12.50
2017-09-10T06:41:04.132Z,12.60
2017-09-10T06:43:31.761Z,12.70
2017-09-10T06:45:59.373Z,12.80
2017-09-10T06:48:27.204Z,12.90
2017-09-10T06:50:55.762Z,13.00
2017-09-10T06:53:24.194Z,13.10
2017-09-10T06:55:52.557Z,13.10
2017-09-10T06:58:20.184Z,13.10
2017-09-10T07:00:48.681Z,13.10
2017-09-10T07:03:16.305Z,13.10
2017-09-10T07:05:43.896Z,13.20
2017-09-10T07:08:11.971Z,13.20
2017-09-10T07:10:40.228Z,13.30
2017-09-10T07:13:07.900Z,13.40
2017-09-10T07:15:35.846Z,13.50
2017-09-10T07:18:03.438Z,13.70
2017-09-10T07:20:31.016Z,13.80
2017-09-10T07:22:58.653Z,13.90
2017-09-10T07:25:26.220Z,13.90
2017-09-10T07:27:54.049Z,14.00
2017-09-10T07:30:22.392Z,14.10
2017-09-10T07:32:50.740Z,14.20
2017-09-10T07:35:18.356Z,14.10
2017-09-10T07:37:46.083Z,14.20
2017-09-10T07:40:14.475Z,14.20
2017-09-10T07:42:42.826Z,14.30
2017-09-10T07:45:10.404Z,14.30
2017-09-10T07:47:38.732Z,14.50
2017-09-10T07:50:06.313Z,14.40
2017-09-10T07:52:33.878Z,14.40
2017-09-10T07:55:01.482Z,14.50
2017-09-10T07:57:29.088Z,14.50
2017-09-10T07:59:56.644Z,14.50
2017-09-10T08:02:24.860Z,14.60
2017-09-10T08:04:53.223Z,14.80
2017-09-10T08:07:20.782Z,14.80
2017-09-10T08:09:48.332Z,14.70
2017-09-10T08:12:15.931Z,14.80
2017-09-10T08:14:44.264Z,14.90
2017-09-10T08:17:11.872Z,14.90
2017-09-10T08:19:39.461Z,15.00
2017-09-10T08:22:07.065Z,15.10
2017-09-10T08:24:34.708Z,15.20
2017-09-10T08:27:02.264Z,15.20
2017-09-10T08:29:29.834Z,15.30
2017-09-10T08:31:57.438Z,15.30
2017-09-10T08:34:25.035Z,15.30
2017-09-10T08:36:52.616Z,15.30
2017-09-10T08:39:20.240Z,15.50
2017-09-10T08:41:47.805Z,15.60
2017-09-10T08:44:15.440Z,15.70
2017-09-10T08:46:43.114Z,15.70
2017-09-10T08:49:10.696Z,15.80
2017-09-10T08:51:38.311Z,16.00
2017-09-10T08:54:06.631Z,16.20
2017-09-10T08:56:34.200Z,16.20
2017-09-10T08:59:01.781Z,16.40
2017-09-10T09:01:29.377Z,16.50
2017-09-10T09:03:56.982Z,16.60
2017-09-10T09:06:25.351Z,16.70
2017-09-10T09:08:52.971Z,16.80
2017-09-10T09:11:21.364Z,17.10
2017-09-10T09:13:49.008Z,17.10
2017-09-10T09:16:17.340Z,16.90
2017-09-10T09:18:44.923Z,16.90
2017-09-10T09:21:12.494Z,17.10
2017-09-10T09:23:40.844Z,17.20
2017-09-10T09:26:08.432Z,17.20
2017-09-10T09:28:35.999Z,17.30
2017-09-10T09:31:05.203Z,17.40
2017-09-10T09:33:34.233Z,17.50
2017-09-10T09:36:01.831Z,17.50
2017-09-10T09:38:29.400Z,17.70
2017-09-10T09:40:57.496Z,17.90
2017-09-10T09:43:25.895Z,17.80
2017-09-10T09:45:54.156Z,17.80
2017-09-10T09:48:23.152Z,18.00
2017-09-10T09:50:50.769Z,18.00
2017-09-10T09:53:19.030Z,17.90
2017-09-10T09:55:46.588Z,17.80
2017-09-10T09:58:14.223Z,17.70
2017-09-10T10:00:41.806Z,17.70
2017-09-10T10:03:09.395Z,17.60
2017-09-10T10:05:36.998Z,17.60
2017-09-10T10:08:04.555Z,17.40
2017-09-10T10:10:32.196Z,17.30
2017-09-10T10:13:00.555Z,17.60
2017-09-10T10:15:29.810Z,17.70
2017-09-10T10:17:57.385Z,17.70
2017-09-10T10:20:24.994Z,17.80
2017-09-10T10:22:52.614Z,17.90
2017-09-10T10:25:20.474Z,17.90
2017-09-10T10:27:48.078Z,17.90
2017-09-10T10:30:15.662Z,17.70
2017-09-10T10:32:44.007Z,18.00
2017-09-10T10:35:11.605Z,18.00
2017-09-10T10:37:39.222Z,18.00
2017-09-10T10:40:06.809Z,18.00
2017-09-10T10:42:34.403Z,17.90
2017-09-10T10:45:01.963Z,18.10
2017-09-10T10:47:29.568Z,18.30
2017-09-10T10:49:57.150Z,18.30
2017-09-10T10:52:24.731Z,18.20
2017-09-10T10:54:52.315Z,18.20
2017-09-10T10:57:19.897Z,18.10
2017-09-10T10:59:47.489Z,18.10
2017-09-10T11:02:15.098Z,18.10
2017-09-10T11:04:42.704Z,18.10
2017-09-10T11:07:10.334Z,18.10
2017-09-10T11:09:37.907Z,18.20
2017-09-10T11:12:06.260Z,18.10
2017-09-10T11:14:33.836Z,18.10
2017-09-10T11:17:01.457Z,18.20
2017-09-10T11:19:28.993Z,18.10
2017-09-10T11:21:58.151Z,17.90
2017-09-10T11:24:25.705Z,17.90
2017-09-10T11:26:53.258Z,17.80
2017-09-10T11:29:20.850Z,17.80
2017-09-10T11:31:48.460Z,17.80
2017-09-10T11:34:16.794Z,17.80
2017-09-10T11:36:44.370Z,17.80
2017-09-10T11:39:12.696Z,17.70
2017-09-10T11:41:40.333Z,17.60
2017-09-10T11:44:07.933Z,17.80
2017-09-10T11:46:35.500Z,17.90
2017-09-10T11:49:04.019Z,18.00
2017-09-10T11:51:31.725Z,18.10
2017-09-10T11:53:59.303Z,18.20
2017-09-10T11:56:26.896Z,18.30
2017-09-10T11:58:55.363Z,18.50
2017-09-10T12:01:23.739Z,18.80
2017-09-10T12:03:51.392Z,18.80
2017-09-10T12:06:18.992Z,19.00
2017-09-10T12:08:46.573Z,19.10
2017-09-10T12:11:14.155Z,19.30
2017-09-10T12:13:41.794Z,19.20
2017-09-10T12:16:09.395Z,19.20
2017-09-10T12:18:36.955Z,19.40
2017-09-10T12:21:05.368Z,19.20
2017-09-10T12:23:32.948Z,19.20
2017-09-10T12:26:00.506Z,19.10
2017-09-10T12:28:28.090Z,19.00
2017-09-10T12:30:55.652Z,19.00
2017-09-10T12:33:23.236Z,18.90
2017-09-10T12:35:50.812Z,19.00
2017-09-10T12:38:18.395Z,18.70
2017-09-10T12:40:45.979Z,18.80
2017-09-10T12:43:13.536Z,19.10
2017-09-10T12:45:41.125Z,19.30
2017-09-10T12:48:08.714Z,19.10
2017-09-10T12:50:37.054Z,19.40
2017-09-10T12:53:04.653Z,19.30
2017-09-10T12:55:33.377Z,19.50
2017-09-10T12:58:00.941Z,19.50
2017-09-10T13:00:28.503Z,19.50
2017-09-10T13:02:56.113Z,19.40
2017-09-10T13:05:24.448Z,19.60
2017-09-10T13:07:52.034Z,19.60
2017-09-10T13:10:19.644Z,19.60
2017-09-10T13:12:47.243Z,19.70
2017-09-10T13:15:14.797Z,19.80
2017-09-10T13:17:42.369Z,19.80
2017-09-10T13:20:09.961Z,19.60
2017-09-10T13:22:38.307Z,19.50
2017-09-10T13:25:05.932Z,19.50
2017-09-10T13:27:33.621Z,19.50
2017-09-10T13:30:01.181Z,19.60
2017-09-10T13:32:28.790Z,19.60
2017-09-10T13:34:56.381Z,19.70
2017-09-10T13:37:23.939Z,19.60
2017-09-10T13:39:51.532Z,19.50
2017-09-10T13:42:19.101Z,19.40
2017-09-10T13:44:46.725Z,19.50
2017-09-10T13:47:14.307Z,19.60
2017-09-10T13:49:41.884Z,19.70
2017-09-10T13:52:10.239Z,19.90
2017-09-10T13:54:37.810Z,19.90
2017-09-10T13:57:05.385Z,19.80
2017-09-10T13:59:32.933Z,19.80
2017-09-10T14:02:00.549Z,19.80
2017-09-10T14:04:28.136Z,19.50
2017-09-10T14:06:55.740Z,19.50
2017-09-10T14:09:24.091Z,19.40
2017-09-10T14:11:51.649Z,19.40
2017-09-10T14:14:19.236Z,19.50
2017-09-10T14:16:46.779Z,19.50
2017-09-10T14:19:14.678Z,19.50
2017-09-10T14:21:43.047Z,19.80
2017-09-10T14:24:10.649Z,19.80
2017-09-10T14:26:38.261Z,20.00
2017-09-10T14:29:06.616Z,20.10
2017-09-10T14:31:34.221Z,20.00
2017-09-10T14:34:01.800Z,20.00
2017-09-10T14:36:29.406Z,20.00
2017-09-10T14:38:56.965Z,19.90
2017-09-10T14:41:24.538Z,19.80
2017-09-10T14:43:52.916Z,20.20
2017-09-10T14:46:21.238Z,20.20
2017-09-10T14:48:48.866Z,20.20
2017-09-10T14:51:17.196Z,19.90
2017-09-10T14:53:44.753Z,19.90
2017-09-10T14:56:12.350Z,19.80
2017-09-10T14:58:40.719Z,19.70
2017-09-10T15:01:08.308Z,19.70
2017-09-10T15:03:35.912Z,19.60
2017-09-10T15:06:03.481Z,19.50
2017-09-10T15:08:31.056Z,19.40
2017-09-10T15:10:58.652Z,19.40
2017-09-10T15:13:26.209Z,19.50
2017-09-10T15:15:53.798Z,19.50
2017-09-10T15:18:21.387Z,19.50
2017-09-10T15:20:48.970Z,19.50
2017-09-10T15:23:17.289Z,19.20
2017-09-10T15:25:44.893Z,19.20
2017-09-10T15:28:12.448Z,19.20
2017-09-10T15:30:40.640Z,19.20
2017-09-10T15:33:09.030Z,19.10
2017-09-10T15:35:37.391Z,19.20
2017-09-10T15:38:05.797Z,19.10
2017-09-10T15:40:34.135Z,19.00
2017-09-10T15:43:01.701Z,19.00
2017-09-10T15:45:29.308Z,18.80
2017-09-10T15:47:56.848Z,18.80
2017-09-10T15:50:25.197Z,19.00
2017-09-10T15:52:52.769Z,19.00
2017-09-10T15:55:20.423Z,19.10
2017-09-10T15:57:48.013Z,19.10
2017-09-10T16:00:16.365Z,18.90
2017-09-10T16:02:44.753Z,18.80
2017-09-10T16:05:12.348Z,18.80
2017-09-10T16:07:39.927Z,18.80
2017-09-10T16:10:07.529Z,18.80
2017-09-10T16:12:35.893Z,18.80
2017-09-10T16:15:03.521Z,18.80
2017-09-10T16:17:31.116Z,18.90
2017-09-10T16:19:58.739Z,18.80
2017-09-10T16:22:26.306Z,18.70
2017-09-10T16:24:53.905Z,18.70
2017-09-10T16:27:21.525Z,18.60
2017-09-10T16:29:49.111Z,18.60
2017-09-10T16:32:16.709Z,18.50
2017-09-10T16:34:44.593Z,18.40
2017-09-10T16:37:12.175Z,18.40
2017-09-10T16:39:39.727Z,18.40
2017-09-10T16:42:07.304Z,18.40
2017-09-10T16:44:34.984Z,18.40
2017-09-10T16:47:02.604Z,18.40
2017-09-10T16:49:30.147Z,18.30
2017-09-10T16:51:58.255Z,18.40
2017-09-10T16:54:25.861Z,18.50
2017-09-10T16:56:53.464Z,18.50
2017-09-10T16:59:21.074Z,18.40
2017-09-10T17:01:49.156Z,18.30
2017-09-10T17:04:16.730Z,18.30
2017-09-10T17:06:44.315Z,18.20
2017-09-10T17:09:11.901Z,18.20
2017-09-10T17:11:39.587Z,18.00
2017-09-10T17:14:07.956Z,18.00
2017-09-10T17:16:35.540Z,18.00
2017-09-10T17:19:03.917Z,17.90
2017-09-10T17:21:31.588Z,17.90
2017-09-10T17:23:59.214Z,17.80
2017-09-10T17:26:26.862Z,17.80
2017-09-10T17:28:54.473Z,17.70
2017-09-10T17:31:22.085Z,17.60
2017-09-10T17:33:49.660Z,17.60
2017-09-10T17:36:17.323Z,17.50
2017-09-10T17:38:44.988Z,17.40
2017-09-10T17:41:12.581Z,17.40
2017-09-10T17:43:40.204Z,17.30
2017-09-10T17:46:07.785Z,17.20
2017-09-10T17:48:36.147Z,17.20
2017-09-10T17:51:03.774Z,17.20
2017-09-10T17:53:31.376Z,17.10
2017-09-10T17:55:59.756Z,17.10
2017-09-10T17:58:28.107Z,17.00
2017-09-10T18:00:56.488Z,16.90
2017-09-10T18:03:24.107Z,16.90
2017-09-10T18:05:51.658Z,16.90
2017-09-10T18:08:20.035Z,16.80
2017-09-10T18:10:47.596Z,16.70
2017-09-10T18:13:15.974Z,16.70
2017-09-10T18:15:43.542Z,16.70
2017-09-10T18:18:11.101Z,16.60
2017-09-10T18:20:38.748Z,16.50
2017-09-10T18:23:07.150Z,16.40
2017-09-10T18:25:34.792Z,16.40
2017-09-10T18:28:03.189Z,16.40
2017-09-10T18:30:30.877Z,16.40
2017-09-10T18:32:58.500Z,16.30
2017-09-10T18:35:26.109Z,16.30
2017-09-10T18:37:53.694Z,16.30
2017-09-10T18:40:21.338Z,16.20
2017-09-10T18:42:48.925Z,16.20
2017-09-10T18:45:16.714Z,16.20
2017-09-10T18:47:44.357Z,16.10
2017-09-10T18:50:12.728Z,16.10
2017-09-10T18:52:41.067Z,16.10
2017-09-10T18:55:08.701Z,16.10
2017-09-10T18:57:36.320Z,16.00
2017-09-10T19:00:03.908Z,15.90
2017-09-10T19:02:32.302Z,15.70
2017-09-10T19:04:59.951Z,15.70
2017-09-10T19:07:27.519Z,15.70
2017-09-10T19:09:55.129Z,15.60
2017-09-10T19:12:22.751Z,15.60
2017-09-10T19:14:50.367Z,15.70
2017-09-10T19:17:18.762Z,15.80
2017-09-10T19:19:47.311Z,15.90
2017-09-10T19:22:15.713Z,15.90
2017-09-10T19:24:43.294Z,15.90
2017-09-10T19:27:10.951Z,15.90
2017-09-10T19:29:39.321Z,15.80
2017-09-10T19:32:07.746Z,15.80
2017-09-10T19:34:35.341Z,15.80
2017-09-10T19:37:02.938Z,15.80
2017-09-10T19:39:30.562Z,15.80
2017-09-10T19:41:58.155Z,15.80
2017-09-10T19:44:25.746Z,15.80
2017-09-10T19:46:53.352Z,15.80
2017-09-10T19:49:21.723Z,15.80
2017-09-10T19:51:49.355Z,15.70
2017-09-10T19:54:16.939Z,15.80
2017-09-10T19:56:44.722Z,15.80
2017-09-10T19:59:12.878Z,15.70
2017-09-10T20:01:40.486Z,15.70
2017-09-10T20:04:08.105Z,15.70
2017-09-10T20:06:36.613Z,15.60
2017-09-10T20:09:04.606Z,15.60
2017-09-10T20:11:32.216Z,15.60
2017-09-10T20:13:59.801Z,15.60
2017-09-10T20:16:27.399Z,15.60
2017-09-10T20:18:54.949Z,15.60
2017-09-10T20:21:22.543Z,15.50
2017-09-10T20:23:50.101Z,15.50
2017-09-10T20:26:17.683Z,15.40
2017-09-10T20:28:45.255Z,15.30
2017-09-10T20:31:12.845Z,15.20
2017-09-10T20:33:40.452Z,15.30
2017-09-10T20:36:08.082Z,15.20
2017-09-10T20:38:35.673Z,15.20
2017-09-10T20:41:03.264Z,15.20
2017-09-10T20:43:30.830Z,15.20
2017-09-10T20:45:58.457Z,15.20
2017-09-10T20:48:26.138Z,15.20
2017-09-10T20:50:54.474Z,15.20
2017-09-10T20:53:22.060Z,15.20
2017-09-10T20:55:49.639Z,15.20
2017-09-10T20:58:17.976Z,15.30
2017-09-10T21:00:45.548Z,15.30
2017-09-10T21:03:13.190Z,15.20
2017-09-10T21:05:40.766Z,15.20
2017-09-10T21:08:08.375Z,15.20
2017-09-10T21:10:35.993Z,15.20
2017-09-10T21:13:03.682Z,15.30
2017-09-10T21:15:31.496Z,15.20
2017-09-10T21:17:59.082Z,15.20
2017-09-10T21:20:26.675Z,15.20
2017-09-10T21:22:54.307Z,15.20
2017-09-10T21:25:21.939Z,15.10
2017-09-10T21:27:49.547Z,15.10
2017-09-10T21:30:17.127Z,15.10
2017-09-10T21:32:44.797Z,15.10
2017-09-10T21:35:12.405Z,15.20
2017-09-10T21:37:39.972Z,15.20
2017-09-10T21:40:07.552Z,15.20
2017-09-10T21:42:35.140Z,15.10
2017-09-10T21:45:02.732Z,15.10
2017-09-10T21:47:30.365Z,15.00
2017-09-10T21:49:57.952Z,15.00
2017-09-10T21:52:25.529Z,14.90
2017-09-10T21:54:53.141Z,14.90
2017-09-10T21:57:20.732Z,14.90
2017-09-10T21:59:48.341Z,14.90
2017-09-10T22:02:15.930Z,14.90
2017-09-10T22:04:44.308Z,14.90
2017-09-10T22:07:11.892Z,14.90
2017-09-10T22:09:39.935Z,14.90
2017-09-10T22:12:07.577Z,14.90
2017-09-10T22:14:35.116Z,14.90
2017-09-10T22:17:02.759Z,14.90
2017-09-10T22:19:31.230Z,14.90
2017-09-10T22:21:58.839Z,14.90
2017-09-10T22:24:26.381Z,14.90
2017-09-10T22:26:53.955Z,14.90
2017-09-10T22:29:21.580Z,14.80
2017-09-10T22:31:49.144Z,14.80
2017-09-10T22:34:16.720Z,14.80
2017-09-10T22:36:44.299Z,14.90
2017-09-10T22:39:12.683Z,14.90
2017-09-10T22:41:41.618Z,14.90
2017-09-10T22:44:09.236Z,14.80
2017-09-10T22:46:37.630Z,14.90
2017-09-10T22:49:05.218Z,14.90
2017-09-10T22:51:33.465Z,14.80
2017-09-10T22:54:01.058Z,14.90
2017-09-10T22:56:28.654Z,14.90
2017-09-10T22:58:56.234Z,14.90
2017-09-10T23:01:24.570Z,14.90
2017-09-10T23:03:52.180Z,14.90
2017-09-10T23:06:19.754Z,14.90
2017-09-10T23:08:47.356Z,14.80
2017-09-10T23:11:15.743Z,14.80
2017-09-10T23:13:43.296Z,14.80
2017-09-10T23:16:11.668Z,14.80
2017-09-10T23:18:39.257Z,14.80
2017-09-10T23:21:07.574Z,14.90
2017-09-10T23:23:35.953Z,14.80
2017-09-10T23:26:03.510Z,14.90
2017-09-10T23:28:31.124Z,14.90
2017-09-10T23:30:58.679Z,14.90
2017-09-10T23:33:26.254Z,14.80
2017-09-10T23:35:53.806Z,14.90
2017-09-10T23:38:21.367Z,14.90
2017-09-10T23:40:48.988Z,14.80
2017-09-10T23:43:16.553Z,14.80
2017-09-10T23:45:44.123Z,14.70
2017-09-10T23:48:12.484Z,14.70
2017-09-10T23:50:40.441Z,14.70
2017-09-10T23:53:08.078Z,14.70
2017-09-10T23:55:35.967Z,14.70
2017-09-10T23:58:03.522Z,14.70
